Time;durP1;ratioP1;P1;durP2;ratioP2;P2;SDS_P1;SDS_P2;PMS_P1;PMS_P2;Temp;Humidity;BMP_temperature;BMP_pressure;BME280_temperature;BME280_humidity;BME280_pressure;Samples;Min_cycle;Max_cycle;Signal;HPM_P1;HPM_P2
2021/09/12 00:00:28;;;;;;;0.85;0.45;;;18.60;99.90;;;;;;4983579;28;20023;-78
2021/09/12 00:02:54;;;;;;;1.55;0.80;;;18.60;99.90;;;;;;4998582;28;20529;-77
2021/09/12 00:05:20;;;;;;;1.05;0.77;;;18.60;99.90;;;;;;4983944;28;20034;-77
2021/09/12 00:07:46;;;;;;;3.63;1.02;;;18.60;99.90;;;;;;4980343;28;20045;-77
2021/09/12 00:10:12;;;;;;;2.60;0.80;;;18.60;99.90;;;;;;4988393;28;20031;-76
2021/09/12 00:12:38;;;;;;;1.85;0.77;;;18.60;99.90;;;;;;4994159;28;20090;-77
2021/09/12 00:15:09;;;;;;;1.90;0.82;;;18.50;99.90;;;;;;4993183;28;20086;-78
2021/09/12 00:17:35;;;;;;;;;;;18.50;99.90;;;;;;4994320;28;20089;-77
2021/09/12 00:20:01;;;;;;;1.70;0.65;;;18.50;99.90;;;;;;4995036;28;19914;-78
2021/09/12 00:22:27;;;;;;;1.20;0.60;;;18.50;99.90;;;;;;4995150;28;20105;-78
2021/09/12 00:24:53;;;;;;;1.50;0.70;;;18.50;99.90;;;;;;4992340;28;20593;-77
2021/09/12 00:27:19;;;;;;;3.10;1.05;;;18.50;99.90;;;;;;5000307;28;20034;-78
2021/09/12 00:29:44;;;;;;;3.75;1.27;;;18.40;99.90;;;;;;4984948;28;20089;-78
2021/09/12 00:32:10;;;;;;;3.13;1.00;;;18.40;99.90;;;;;;4984549;28;20041;-77
2021/09/12 00:34:35;;;;;;;2.88;0.90;;;18.50;99.90;;;;;;4985719;28;20145;-79
2021/09/12 00:37:04;;;;;;;1.90;1.05;;;18.40;99.90;;;;;;4984472;28;20066;-79
2021/09/12 00:39:30;;;;;;;3.30;0.95;;;18.40;99.90;;;;;;4983707;28;20530;-78
2021/09/12 00:41:56;;;;;;;1.80;0.85;;;18.50;99.90;;;;;;4984723;28;20125;-78
2021/09/12 00:44:24;;;;;;;3.65;1.08;;;18.40;99.90;;;;;;4985341;28;20022;-78
2021/09/12 00:46:53;;;;;;;3.63;0.85;;;18.50;99.90;;;;;;4986312;28;20026;-78
2021/09/12 00:49:20;;;;;;;3.25;1.10;;;18.50;99.90;;;;;;4983315;28;20022;-78
2021/09/12 00:51:45;;;;;;;3.03;0.95;;;18.40;99.90;;;;;;5002832;28;20046;-78
2021/09/12 00:54:12;;;;;;;2.50;1.02;;;18.40;99.90;;;;;;4986502;28;20657;-78
2021/09/12 00:56:40;;;;;;;4.57;1.52;;;18.40;99.90;;;;;;4985001;28;20787;-78
2021/09/12 00:59:10;;;;;;;3.50;1.30;;;18.40;99.90;;;;;;4979785;28;20054;-78
2021/09/12 01:01:39;;;;;;;4.07;1.30;;;18.40;99.90;;;;;;4987018;28;20026;-79
2021/09/12 01:04:04;;;;;;;1.77;0.98;;;18.40;99.90;;;;;;4985060;28;20034;-78
2021/09/12 01:06:31;;;;;;;4.53;1.45;;;18.40;99.90;;;;;;4984886;28;20085;-79
2021/09/12 01:08:58;;;;;;;4.35;1.60;;;18.40;99.90;;;;;;4982348;28;20481;-77
2021/09/12 01:11:24;;;;;;;3.72;1.50;;;18.40;99.90;;;;;;4986073;28;20026;-77
2021/09/12 01:13:50;;;;;;;4.57;1.27;;;18.30;99.90;;;;;;4986257;28;20022;-78
2021/09/12 01:16:18;;;;;;;2.88;1.20;;;18.30;99.90;;;;;;4985598;28;20117;-78
2021/09/12 01:18:44;;;;;;;3.65;1.10;;;18.40;99.90;;;;;;4983992;28;20081;-77
2021/09/12 01:21:23;;;;;;;3.10;0.95;;;18.40;99.90;;;;;;4985995;28;20038;-78
2021/09/12 01:23:50;;;;;;;3.50;1.38;;;18.30;99.90;;;;;;4986216;28;20487;-78
2021/09/12 01:26:27;;;;;;;3.10;1.27;;;18.30;99.90;;;;;;4983780;28;20050;-78
2021/09/12 01:28:57;;;;;;;3.78;1.15;;;18.30;99.90;;;;;;4983440;28;20077;-77
2021/09/12 01:31:25;;;;;;;3.20;1.30;;;18.30;99.90;;;;;;4984675;28;20026;-78
2021/09/12 01:33:51;;;;;;;2.67;1.40;;;18.30;99.90;;;;;;4985358;28;20041;-77
2021/09/12 01:36:17;;;;;;;2.55;1.48;;;18.20;99.90;;;;;;4983734;28;20026;-78
2021/09/12 01:38:44;;;;;;;3.15;1.13;;;18.20;99.90;;;;;;4983698;28;20093;-77
2021/09/12 01:41:10;;;;;;;3.35;1.30;;;18.20;99.90;;;;;;4984729;28;20044;-78
2021/09/12 01:43:43;;;;;;;4.50;1.15;;;18.20;99.90;;;;;;4985891;28;20045;-79
2021/09/12 01:46:09;;;;;;;2.75;1.35;;;18.10;99.90;;;;;;4983774;28;20042;-77
2021/09/12 01:48:35;;;;;;;3.80;1.30;;;18.10;99.90;;;;;;4983284;28;20038;-78
2021/09/12 01:51:01;;;;;;;4.40;1.40;;;18.10;99.90;;;;;;4984531;28;20034;-78
2021/09/12 01:53:26;;;;;;;3.75;1.27;;;18.10;99.90;;;;;;4984397;28;20113;-78
2021/09/12 01:55:52;;;;;;;3.53;1.05;;;18.10;99.90;;;;;;4983791;28;20053;-77
2021/09/12 01:58:17;;;;;;;4.15;1.17;;;18.10;99.90;;;;;;4983484;28;20050;-78
2021/09/12 02:00:43;;;;;;;1.83;0.80;;;18.10;99.90;;;;;;4992563;28;20042;-78
2021/09/12 02:03:09;;;;;;;3.15;1.15;;;18.10;99.90;;;;;;4982949;28;20046;-78
2021/09/12 02:05:34;;;;;;;2.25;1.05;;;18.00;99.90;;;;;;4999967;28;20049;-78
2021/09/12 02:08:00;;;;;;;1.50;0.95;;;18.00;99.90;;;;;;4981119;28;20042;-78
2021/09/12 02:10:26;;;;;;;1.92;1.00;;;18.00;99.90;;;;;;4981971;28;20030;-78
2021/09/12 02:12:53;;;;;;;3.63;1.08;;;18.00;99.90;;;;;;4984217;28;20022;-78
2021/09/12 02:15:19;;;;;;;3.90;1.67;;;17.90;99.90;;;;;;4983387;28;20463;-78
2021/09/12 02:17:44;;;;;;;1.98;1.15;;;17.90;99.90;;;;;;4982985;28;20034;-77
2021/09/12 02:20:11;;;;;;;3.53;1.08;;;17.90;99.90;;;;;;4984219;28;20034;-78
2021/09/12 02:22:36;;;;;;;2.95;1.30;;;17.80;99.90;;;;;;4985285;28;20042;-80
2021/09/12 02:25:03;;;;;;;2.67;1.10;;;17.80;99.90;;;;;;4984024;28;20073;-77
2021/09/12 02:27:28;;;;;;;2.92;1.05;;;17.80;99.90;;;;;;4984710;28;20034;-77
2021/09/12 02:29:54;;;;;;;2.42;1.00;;;17.80;99.90;;;;;;4997606;28;20137;-77
2021/09/12 02:32:19;;;;;;;3.08;1.17;;;17.70;99.90;;;;;;5001331;28;20057;-77
2021/09/12 02:34:45;;;;;;;3.42;1.00;;;17.70;99.90;;;;;;4983844;28;20034;-78
2021/09/12 02:37:11;;;;;;;4.45;1.13;;;17.70;99.90;;;;;;4984627;28;20042;-78
2021/09/12 02:39:36;;;;;;;4.53;1.50;;;17.70;99.90;;;;;;4982773;28;20109;-79
2021/09/12 02:42:02;;;;;;;4.43;1.30;;;17.60;99.90;;;;;;4982769;28;20137;-78
2021/09/12 02:44:28;;;;;;;2.25;1.20;;;17.50;99.90;;;;;;4982782;28;20493;-79
2021/09/12 02:46:53;;;;;;;2.80;1.10;;;17.50;99.90;;;;;;4999077;28;20034;-79
2021/09/12 02:49:19;;;;;;;2.42;1.13;;;17.50;99.90;;;;;;4981698;28;20029;-78
2021/09/12 02:51:45;;;;;;;1.88;1.15;;;17.40;99.90;;;;;;5000337;28;20031;-79
2021/09/12 02:54:10;;;;;;;1.85;0.93;;;17.40;99.90;;;;;;4983835;28;20030;-78
2021/09/12 02:56:36;;;;;;;1.65;0.90;;;17.40;99.90;;;;;;4983817;28;20121;-78
2021/09/12 02:59:01;;;;;;;2.83;1.10;;;17.40;99.90;;;;;;4980411;28;20113;-78
2021/09/12 03:01:27;;;;;;;2.00;0.90;;;17.30;99.90;;;;;;4975736;28;20046;-79
2021/09/12 03:03:53;;;;;;;1.98;1.00;;;17.30;99.90;;;;;;4983512;28;20456;-78
2021/09/12 03:06:18;;;;;;;1.60;0.65;;;17.30;99.90;;;;;;4983619;28;20657;-78
2021/09/12 03:08:44;;;;;;;2.70;0.88;;;17.30;99.90;;;;;;4982343;28;20027;-78
2021/09/12 03:11:09;;;;;;;1.75;1.00;;;17.20;99.90;;;;;;4983064;28;20038;-79
2021/09/12 03:13:37;;;;;;;3.17;1.00;;;17.20;99.90;;;;;;4984784;28;20038;-78
2021/09/12 03:16:04;;;;;;;0.73;0.60;;;17.20;99.90;;;;;;4982018;28;20034;-78
2021/09/12 03:18:29;;;;;;;2.40;0.60;;;17.20;99.90;;;;;;4980592;28;20109;-78
2021/09/12 03:20:55;;;;;;;2.88;0.90;;;17.10;99.90;;;;;;4982479;28;20454;-78
2021/09/12 03:23:21;;;;;;;1.50;0.95;;;17.10;99.90;;;;;;4982354;28;20130;-78
2021/09/12 03:25:46;;;;;;;3.42;1.00;;;17.10;99.90;;;;;;4980946;28;20050;-78
2021/09/12 03:28:12;;;;;;;1.30;0.90;;;17.00;99.90;;;;;;4979807;28;20080;-78
2021/09/12 03:30:38;;;;;;;2.50;1.00;;;17.00;99.90;;;;;;4983862;28;20035;-78
2021/09/12 03:33:04;;;;;;;2.38;0.90;;;16.90;99.90;;;;;;4980755;28;20034;-78
2021/09/12 03:35:29;;;;;;;1.27;0.82;;;16.90;99.90;;;;;;4977909;28;20038;-77
2021/09/12 03:37:57;;;;;;;1.75;1.10;;;16.90;99.90;;;;;;4974433;28;20042;-78
2021/09/12 03:40:23;;;;;;;3.15;1.00;;;16.90;99.90;;;;;;4980336;28;20076;-79
2021/09/12 03:42:49;;;;;;;2.95;1.30;;;16.80;99.90;;;;;;4983860;28;20049;-77
2021/09/12 03:45:14;;;;;;;1.95;0.88;;;16.80;99.90;;;;;;4983304;28;20022;-78
2021/09/12 03:47:40;;;;;;;1.90;1.10;;;16.70;99.90;;;;;;4981885;28;20031;-78
2021/09/12 03:50:06;;;;;;;2.10;0.90;;;16.70;99.90;;;;;;4985682;28;20205;-77
2021/09/12 03:52:32;;;;;;;3.17;1.25;;;16.60;99.90;;;;;;5001551;28;20033;-77
2021/09/12 03:54:57;;;;;;;2.22;1.08;;;16.60;99.90;;;;;;4986113;28;20658;-81
2021/09/12 03:57:25;;;;;;;1.98;1.00;;;16.60;99.90;;;;;;4985325;28;20515;-78
2021/09/12 03:59:54;;;;;;;1.77;0.95;;;16.60;99.90;;;;;;4985696;28;20052;-78
2021/09/12 04:02:19;;;;;;;2.30;0.95;;;16.60;99.90;;;;;;4997404;28;20046;-78
2021/09/12 04:04:48;;;;;;;4.38;1.40;;;16.50;99.90;;;;;;5019055;28;20529;-78
2021/09/12 04:07:14;;;;;;;4.22;1.63;;;16.50;99.90;;;;;;4986367;28;20054;-77
2021/09/12 04:09:39;;;;;;;5.82;1.70;;;16.40;99.90;;;;;;4983659;28;20552;-79
2021/09/12 04:12:05;;;;;;;3.13;1.35;;;16.40;99.90;;;;;;4986541;28;20031;-78
2021/09/12 04:14:31;;;;;;;5.45;2.15;;;16.40;99.90;;;;;;5018478;28;20026;-78
2021/09/12 04:16:56;;;;;;;6.85;2.10;;;16.30;99.90;;;;;;4985484;28;20117;-78
2021/09/12 04:19:22;;;;;;;5.15;1.95;;;16.30;99.90;;;;;;4983191;28;20293;-78
2021/09/12 04:21:48;;;;;;;4.10;2.03;;;16.30;99.90;;;;;;4988065;28;20033;-78
2021/09/12 04:24:13;;;;;;;6.35;2.38;;;16.30;99.90;;;;;;4984275;28;20058;-78
2021/09/12 04:26:39;;;;;;;3.55;1.88;;;16.40;99.90;;;;;;5001835;28;20048;-79
2021/09/12 04:29:05;;;;;;;6.28;2.20;;;16.40;99.90;;;;;;4985060;28;20054;-77
2021/09/12 04:31:30;;;;;;;5.85;1.75;;;16.40;99.90;;;;;;4986510;28;20026;-78
2021/09/12 04:33:57;;;;;;;6.30;2.05;;;16.40;99.90;;;;;;4987252;28;20030;-78
2021/09/12 04:36:22;;;;;;;5.53;2.08;;;16.40;99.90;;;;;;4985753;28;20157;-78
2021/09/12 04:38:48;;;;;;;7.03;2.20;;;16.40;99.90;;;;;;5016197;28;20030;-78
2021/09/12 04:41:15;;;;;;;6.70;1.85;;;16.30;99.90;;;;;;4986519;28;20042;-77
2021/09/12 04:43:42;;;;;;;4.65;2.00;;;16.30;99.90;;;;;;4985665;28;20077;-78
2021/09/12 04:46:07;;;;;;;3.95;1.73;;;16.30;99.90;;;;;;4985532;28;20038;-76
2021/09/12 04:48:33;;;;;;;5.78;1.80;;;16.30;99.90;;;;;;4984468;28;20030;-78
2021/09/12 04:50:59;;;;;;;5.68;2.17;;;16.30;99.90;;;;;;5001687;28;20027;-78
2021/09/12 04:53:24;;;;;;;4.90;2.03;;;16.30;99.90;;;;;;4986023;28;20022;-77
2021/09/12 04:55:50;;;;;;;7.13;2.33;;;16.30;99.90;;;;;;4990695;28;20037;-78
2021/09/12 04:58:16;;;;;;;8.20;2.33;;;16.20;99.90;;;;;;4984330;28;20026;-78
2021/09/12 05:00:41;;;;;;;5.28;1.88;;;16.20;99.90;;;;;;4976558;28;20120;-78
2021/09/12 05:03:07;;;;;;;4.32;1.73;;;16.20;99.90;;;;;;4987147;28;20463;-77
2021/09/12 05:05:33;;;;;;;4.32;2.10;;;16.10;99.90;;;;;;4986299;28;20042;-79
2021/09/12 05:07:58;;;;;;;7.75;1.95;;;16.10;99.90;;;;;;5001394;28;20801;-79
2021/09/12 05:10:24;;;;;;;5.80;2.17;;;16.10;99.90;;;;;;4985639;28;20151;-78
2021/09/12 05:12:49;;;;;;;4.85;2.13;;;16.10;99.90;;;;;;4987995;28;20030;-78
2021/09/12 05:15:17;;;;;;;8.05;2.45;;;16.10;99.90;;;;;;4985756;28;20469;-78
2021/09/12 05:17:43;;;;;;;7.70;2.20;;;16.10;99.90;;;;;;4984647;28;20124;-79
2021/09/12 05:20:09;;;;;;;5.97;1.80;;;16.10;99.90;;;;;;4985108;28;20184;-78
2021/09/12 05:22:35;;;;;;;6.45;2.00;;;16.10;99.90;;;;;;4984767;28;20119;-78
2021/09/12 05:25:02;;;;;;;7.72;1.83;;;16.10;99.90;;;;;;4985701;28;20038;-79
2021/09/12 05:27:27;;;;;;;5.25;1.88;;;16.00;99.90;;;;;;4982900;28;20666;-79
2021/09/12 05:29:53;;;;;;;5.60;2.30;;;16.10;99.90;;;;;;4983662;28;20030;-78
2021/09/12 05:32:18;;;;;;;8.63;2.63;;;16.00;99.90;;;;;;4985598;28;20026;-78
2021/09/12 05:34:44;;;;;;;8.35;2.60;;;16.00;99.90;;;;;;4985898;28;20398;-78
2021/09/12 05:37:10;;;;;;;4.95;2.28;;;16.00;99.90;;;;;;4998884;28;20390;-78
2021/09/12 05:39:36;;;;;;;7.65;3.00;;;16.00;99.90;;;;;;4984093;28;20062;-79
2021/09/12 05:42:02;;;;;;;8.52;2.97;;;16.00;99.90;;;;;;4986396;28;20519;-79
2021/09/12 05:44:28;;;;;;;9.80;3.28;;;16.00;99.90;;;;;;4983476;28;20030;-79
2021/09/12 05:46:54;;;;;;;7.88;3.03;;;15.90;99.90;;;;;;5001535;28;20035;-79
2021/09/12 05:49:20;;;;;;;8.23;2.53;;;15.90;99.90;;;;;;4982528;28;20382;-78
2021/09/12 05:51:46;;;;;;;8.65;3.08;;;16.00;99.90;;;;;;4983469;28;20042;-78
2021/09/12 05:54:12;;;;;;;8.50;2.75;;;15.90;99.90;;;;;;4985278;28;20038;-77
2021/09/12 05:56:37;;;;;;;15.80;4.20;;;16.00;99.90;;;;;;4984915;28;20045;-79
2021/09/12 05:59:03;;;;;;;10.48;3.05;;;15.90;99.90;;;;;;4983313;28;20073;-79
2021/09/12 06:01:29;;;;;;;11.18;3.85;;;15.90;99.90;;;;;;4975729;28;20039;-79
2021/09/12 06:03:54;;;;;;;13.48;4.47;;;15.90;99.90;;;;;;4984393;28;20019;-78
2021/09/12 06:06:20;;;;;;;13.95;5.22;;;15.90;99.90;;;;;;4984282;28;20036;-78
2021/09/12 06:08:46;;;;;;;10.02;4.80;;;15.90;99.90;;;;;;4984058;28;20506;-78
2021/09/12 06:11:14;;;;;;;12.98;4.82;;;15.90;99.90;;;;;;4984494;28;20029;-79
2021/09/12 06:13:40;;;;;;;14.02;5.15;;;15.90;99.90;;;;;;4984185;28;20039;-79
2021/09/12 06:16:07;;;;;;;17.02;5.25;;;15.90;99.90;;;;;;4984468;28;20712;-79
2021/09/12 06:18:34;;;;;;;18.30;6.47;;;15.80;99.90;;;;;;5013508;28;20030;-79
2021/09/12 06:20:59;;;;;;;21.33;5.85;;;15.80;99.90;;;;;;4982679;28;20018;-79
2021/09/12 06:23:25;;;;;;;22.33;6.25;;;15.80;99.90;;;;;;4983745;28;20471;-79
2021/09/12 06:25:51;;;;;;;31.15;7.63;;;15.80;99.90;;;;;;5001341;28;20038;-79
2021/09/12 06:28:17;;;;;;;13.98;5.10;;;15.80;99.90;;;;;;4998028;28;20018;-78
2021/09/12 06:30:43;;;;;;;26.27;8.63;;;15.90;99.90;;;;;;4985925;28;20368;-78
2021/09/12 06:33:10;;;;;;;31.38;8.77;;;15.90;99.90;;;;;;4984629;28;20098;-80
2021/09/12 06:35:35;;;;;;;33.50;9.48;;;15.90;99.90;;;;;;4985365;28;20766;-80
2021/09/12 06:38:01;;;;;;;35.10;9.63;;;15.90;99.90;;;;;;4982325;28;20085;-79
2021/09/12 06:40:30;;;;;;;28.55;8.63;;;15.90;99.90;;;;;;4984355;28;20026;-79
2021/09/12 06:42:58;;;;;;;32.17;9.23;;;15.90;99.90;;;;;;4983941;28;20034;-79
2021/09/12 06:45:25;;;;;;;34.08;10.05;;;16.00;99.90;;;;;;4985322;28;20068;-79
2021/09/12 06:47:51;;;;;;;33.60;8.98;;;16.00;99.90;;;;;;4983277;28;20030;-78
2021/09/12 06:50:17;;;;;;;25.13;7.60;;;16.00;99.90;;;;;;4983354;28;20139;-77
2021/09/12 06:52:42;;;;;;;27.20;8.88;;;16.00;99.90;;;;;;4983598;28;20149;-79
2021/09/12 06:55:08;;;;;;;28.63;9.98;;;16.00;99.90;;;;;;4984428;28;20154;-79
2021/09/12 06:57:34;;;;;;;34.08;9.15;;;16.00;99.90;;;;;;4982627;28;20111;-78
2021/09/12 07:00:00;;;;;;;37.88;9.90;;;16.00;99.90;;;;;;5012758;28;20030;-78
2021/09/12 07:02:26;;;;;;;39.42;10.00;;;16.10;99.90;;;;;;4975401;28;20074;-78
2021/09/12 07:04:51;;;;;;;24.77;8.75;;;16.10;99.90;;;;;;4985430;28;20054;-78
2021/09/12 07:07:17;;;;;;;24.33;8.77;;;16.10;99.90;;;;;;4999438;28;20120;-79
2021/09/12 07:09:43;;;;;;;29.05;8.75;;;16.10;99.90;;;;;;4983702;28;20138;-79
2021/09/12 07:12:09;;;;;;;27.73;7.90;;;16.20;99.90;;;;;;4983855;28;20030;-78
2021/09/12 07:14:35;;;;;;;27.27;7.85;;;16.20;99.90;;;;;;4984530;28;20022;-79
2021/09/12 07:17:01;;;;;;;26.55;7.88;;;16.20;99.90;;;;;;4985371;28;20030;-79
2021/09/12 07:19:26;;;;;;;26.95;8.10;;;16.20;99.90;;;;;;4981720;28;20477;-76
2021/09/12 07:21:54;;;;;;;23.85;8.68;;;16.20;99.90;;;;;;4988243;28;20033;-77
2021/09/12 07:24:20;;;;;;;20.58;7.68;;;16.30;99.90;;;;;;4986728;28;20038;-77
2021/09/12 07:26:45;;;;;;;25.13;7.60;;;16.30;99.90;;;;;;4988421;28;20097;-78
2021/09/12 07:29:11;;;;;;;27.75;8.60;;;16.30;99.90;;;;;;4991734;28;20038;-78
2021/09/12 07:31:37;;;;;;;17.85;6.07;;;16.40;99.90;;;;;;4988390;28;20034;-78
2021/09/12 07:34:04;;;;;;;24.52;7.38;;;16.40;99.90;;;;;;4989347;28;20085;-78
2021/09/12 07:36:30;;;;;;;28.40;8.68;;;16.40;99.90;;;;;;4986376;28;20022;-78
2021/09/12 07:38:55;;;;;;;22.23;8.38;;;16.40;99.90;;;;;;4987030;28;20065;-79
2021/09/12 07:41:21;;;;;;;16.65;6.03;;;16.40;99.90;;;;;;4988510;28;20027;-77
2021/09/12 07:43:47;;;;;;;24.85;7.28;;;16.40;99.90;;;;;;4987360;28;20033;-78
2021/09/12 07:46:12;;;;;;;15.80;7.28;;;16.40;99.90;;;;;;5002853;28;20446;-78
2021/09/12 07:48:38;;;;;;;18.65;7.28;;;16.50;99.90;;;;;;4985594;28;20031;-79
2021/09/12 07:51:05;;;;;;;21.88;7.10;;;16.50;99.90;;;;;;4985497;28;20030;-80
2021/09/12 07:53:31;;;;;;;21.90;7.07;;;16.60;99.90;;;;;;4987048;28;20073;-78
2021/09/12 07:55:57;;;;;;;31.58;7.80;;;16.60;99.90;;;;;;4987564;28;20030;-78
2021/09/12 07:58:23;;;;;;;33.22;8.25;;;16.60;99.90;;;;;;4985463;28;20046;-78
2021/09/12 08:00:49;;;;;;;19.58;7.15;;;16.60;99.90;;;;;;5002503;28;20030;-79
2021/09/12 08:03:15;;;;;;;24.63;7.55;;;16.70;99.90;;;;;;4979179;28;20073;-76
2021/09/12 08:05:40;;;;;;;24.17;7.45;;;16.70;99.90;;;;;;4986891;28;20026;-79
2021/09/12 08:08:06;;;;;;;21.85;6.55;;;16.80;99.90;;;;;;4986096;28;20141;-77
2021/09/12 08:10:31;;;;;;;13.68;5.18;;;16.80;99.90;;;;;;5002166;28;20069;-79
2021/09/12 08:12:57;;;;;;;19.45;6.55;;;16.90;99.90;;;;;;4986743;28;20076;-78
2021/09/12 08:15:23;;;;;;;26.35;7.95;;;16.90;99.90;;;;;;4988589;28;20026;-79
2021/09/12 08:17:48;;;;;;;26.65;8.10;;;17.00;99.90;;;;;;4987527;28;20033;-80
2021/09/12 08:20:14;;;;;;;21.15;8.00;;;17.00;99.90;;;;;;4997515;28;20134;-77
2021/09/12 08:22:40;;;;;;;21.83;7.32;;;17.10;99.90;;;;;;4988721;28;20105;-79
2021/09/12 08:25:06;;;;;;;21.70;6.55;;;17.20;99.90;;;;;;4984961;28;20126;-79
2021/09/12 08:27:32;;;;;;;24.55;7.45;;;17.20;99.90;;;;;;4984112;28;20022;-79
2021/09/12 08:29:58;;;;;;;18.48;5.93;;;17.30;99.90;;;;;;4984736;28;20033;-78
2021/09/12 08:32:23;;;;;;;24.73;8.57;;;17.40;99.90;;;;;;4993068;28;20030;-78
2021/09/12 08:34:49;;;;;;;21.45;7.22;;;17.50;99.90;;;;;;4987168;28;20104;-77
2021/09/12 08:37:15;;;;;;;25.90;8.93;;;17.60;99.90;;;;;;4986356;28;20046;-78
2021/09/12 08:39:42;;;;;;;30.70;9.23;;;17.70;99.90;;;;;;4990432;28;20478;-80
2021/09/12 08:42:10;;;;;;;22.92;9.20;;;17.80;99.80;;;;;;5001783;28;20439;-77
2021/09/12 08:44:37;;;;;;;22.63;8.52;;;17.90;99.70;;;;;;5000566;28;20065;-79
2021/09/12 08:47:04;;;;;;;31.67;9.25;;;17.90;99.70;;;;;;4994946;28;20092;-78
2021/09/12 08:49:30;;;;;;;25.45;9.32;;;18.00;99.60;;;;;;4983758;28;20488;-78
2021/09/12 08:51:56;;;;;;;29.52;10.80;;;18.00;99.60;;;;;;4984939;28;20045;-76
2021/09/12 08:54:21;;;;;;;27.25;8.77;;;18.10;99.50;;;;;;4986469;28;20023;-80
2021/09/12 08:56:47;;;;;;;25.35;9.13;;;18.10;99.50;;;;;;5000464;28;20042;-78
2021/09/12 08:59:36;;;;;;;26.10;9.82;;;18.20;99.50;;;;;;4984066;28;20030;-81
2021/09/12 09:02:04;;;;;;;30.23;9.90;;;18.30;99.30;;;;;;4975065;28;20050;-80
2021/09/12 09:04:34;;;;;;;24.05;10.38;;;18.30;99.20;;;;;;4985254;28;20029;-80
2021/09/12 09:07:06;;;;;;;21.55;8.68;;;18.30;99.10;;;;;;4985361;28;20030;-80
2021/09/12 09:09:50;;;;;;;22.30;9.00;;;18.40;99.10;;;;;;4984358;28;20109;-81
2021/09/12 09:12:24;;;;;;;15.38;6.85;;;18.40;99.10;;;;;;4986335;28;20023;-81
2021/09/12 09:15:12;;;;;;;24.60;10.05;;;18.40;99.00;;;;;;4996733;28;20022;-79
2021/09/12 09:17:51;;;;;;;21.02;7.93;;;18.40;99.00;;;;;;4984199;28;20691;-79
2021/09/12 09:20:36;;;;;;;22.20;8.60;;;18.40;99.00;;;;;;4993475;28;20391;-80
2021/09/12 09:23:06;;;;;;;22.63;8.70;;;18.60;99.00;;;;;;4960739;28;1163924;-78
2021/09/12 09:25:32;;;;;;;20.50;9.35;;;18.60;98.80;;;;;;5017623;28;20038;-78
2021/09/12 09:28:09;;;;;;;17.42;7.93;;;18.80;98.70;;;;;;4984888;28;20644;-78
2021/09/12 09:30:47;;;;;;;23.25;8.20;;;18.90;98.70;;;;;;4985290;28;20023;-78
2021/09/12 09:33:12;;;;;;;15.90;7.10;;;18.90;98.60;;;;;;4985928;28;20129;-80
2021/09/12 09:35:47;;;;;;;18.92;8.35;;;18.90;98.60;;;;;;4986015;28;20121;-80
2021/09/12 09:38:13;;;;;;;17.85;7.57;;;18.90;98.50;;;;;;4984407;28;20038;-80
2021/09/12 09:40:39;;;;;;;14.82;7.00;;;18.90;98.60;;;;;;5001016;28;20084;-80
2021/09/12 09:43:15;;;;;;;22.17;8.20;;;18.80;98.70;;;;;;4987087;28;20050;-80
2021/09/12 09:45:41;;;;;;;26.10;10.10;;;18.90;98.80;;;;;;4986456;28;20045;-79
2021/09/12 09:48:13;;;;;;;22.80;8.68;;;19.00;98.60;;;;;;4983019;28;20034;-80
2021/09/12 09:50:44;;;;;;;16.58;7.68;;;19.10;98.50;;;;;;4984107;28;20154;-80
2021/09/12 09:53:12;;;;;;;24.65;9.07;;;19.20;98.50;;;;;;4984165;28;20120;-79
2021/09/12 09:55:38;;;;;;;22.00;8.65;;;19.30;98.20;;;;;;4985212;28;20031;-80
2021/09/12 09:58:08;;;;;;;22.48;9.27;;;19.40;98.10;;;;;;4983707;28;20045;-78
2021/09/12 10:00:34;;;;;;;20.95;8.80;;;19.40;98.00;;;;;;4984168;28;20022;-79
2021/09/12 10:03:01;;;;;;;19.77;9.38;;;19.50;97.90;;;;;;4974255;28;20484;-80
2021/09/12 10:05:29;;;;;;;18.20;9.20;;;19.50;98.00;;;;;;4985841;28;20018;-78
2021/09/12 10:07:55;;;;;;;21.75;8.70;;;19.60;97.60;;;;;;4999549;28;20146;-80
2021/09/12 10:10:22;;;;;;;17.42;8.05;;;19.60;97.50;;;;;;4984307;28;20022;-78
2021/09/12 10:13:02;;;;;;;16.80;8.18;;;19.60;97.00;;;;;;4985072;28;20089;-79
2021/09/12 10:15:32;;;;;;;18.15;7.50;;;19.70;96.80;;;;;;4984416;28;20105;-77
2021/09/12 10:17:59;;;;;;;14.70;7.07;;;19.60;96.60;;;;;;4981631;28;20093;-77
2021/09/12 10:20:30;;;;;;;15.50;7.97;;;19.70;96.60;;;;;;4984453;28;20030;-83
2021/09/12 10:22:57;;;;;;;18.15;8.02;;;19.60;96.60;;;;;;4985453;28;20028;-81
2021/09/12 10:25:47;;;;;;;17.58;8.30;;;19.50;96.60;;;;;;4985103;28;20034;-79
2021/09/12 10:28:26;;;;;;;16.30;8.05;;;19.50;96.80;;;;;;4983517;28;20040;-80
2021/09/12 10:30:51;;;;;;;17.70;7.80;;;19.40;96.60;;;;;;4985348;28;20058;-79
2021/09/12 10:33:23;;;;;;;16.95;7.03;;;19.40;96.60;;;;;;4983286;28;20125;-79
2021/09/12 10:35:50;;;;;;;18.52;8.93;;;19.40;96.80;;;;;;4984494;28;20718;-78
2021/09/12 10:38:36;;;;;;;15.25;7.80;;;19.40;96.80;;;;;;4984873;28;20097;-83
2021/09/12 10:41:02;;;;;;;15.52;8.15;;;19.40;96.90;;;;;;4984036;28;20022;-76
2021/09/12 10:43:28;;;;;;;16.98;8.48;;;19.40;97.00;;;;;;5000119;28;20038;-78
2021/09/12 10:46:08;;;;;;;15.85;7.82;;;19.30;96.90;;;;;;5000351;28;20050;-78
2021/09/12 10:48:38;;;;;;;18.15;7.13;;;19.30;97.10;;;;;;4997587;28;20431;-75
2021/09/12 10:51:05;;;;;;;14.48;7.57;;;19.30;97.10;;;;;;5000391;28;20100;-75
2021/09/12 10:53:43;;;;;;;20.02;8.25;;;19.40;97.00;;;;;;4984511;28;20022;-75
2021/09/12 10:56:09;;;;;;;17.85;7.97;;;19.40;96.90;;;;;;4999759;28;20149;-76
2021/09/12 10:58:35;;;;;;;16.40;7.90;;;19.40;96.80;;;;;;4981064;28;20029;-76
2021/09/12 11:01:02;;;;;;;13.60;6.65;;;19.40;96.90;;;;;;4985177;28;20031;-76
2021/09/12 11:03:29;;;;;;;21.63;8.43;;;19.50;96.90;;;;;;4989676;28;20379;-76
2021/09/12 11:05:56;;;;;;;15.43;8.32;;;19.50;96.80;;;;;;4984285;28;20125;-76
2021/09/12 11:08:43;;;;;;;21.20;9.48;;;19.40;96.80;;;;;;4982619;28;20027;-76
2021/09/12 11:11:09;;;;;;;19.08;9.18;;;19.40;96.90;;;;;;4984954;28;20034;-78
2021/09/12 11:13:37;;;;;;;18.17;8.07;;;19.40;96.80;;;;;;4983246;28;20030;-76
2021/09/12 11:16:18;;;;;;;14.18;7.72;;;19.40;96.80;;;;;;4984274;28;20058;-77
2021/09/12 11:18:50;;;;;;;15.43;7.93;;;19.50;96.80;;;;;;4983334;28;20034;-77
2021/09/12 11:21:25;;;;;;;24.25;10.63;;;19.50;96.70;;;;;;4985628;28;20499;-77
2021/09/12 11:24:03;;;;;;;21.40;10.70;;;19.60;96.50;;;;;;4999349;28;20046;-77
2021/09/12 11:26:40;;;;;;;28.33;11.05;;;19.70;96.50;;;;;;4998953;28;20084;-78
2021/09/12 11:29:15;;;;;;;14.80;7.50;;;19.90;96.30;;;;;;4982709;28;20022;-78
2021/09/12 11:31:44;;;;;;;19.27;10.20;;;19.90;96.10;;;;;;4983339;28;20430;-77
2021/09/12 11:34:10;;;;;;;23.17;10.38;;;19.80;96.20;;;;;;4985144;28;20042;-78
2021/09/12 11:36:47;;;;;;;25.13;10.25;;;19.80;96.30;;;;;;4984912;28;20038;-75
2021/09/12 11:39:21;;;;;;;20.13;9.95;;;19.70;96.40;;;;;;4983022;28;20035;-76
2021/09/12 11:41:47;;;;;;;22.48;10.98;;;19.70;96.40;;;;;;4983480;28;20521;-77
2021/09/12 11:44:13;;;;;;;28.98;12.90;;;19.70;96.40;;;;;;4983587;28;20034;-76
2021/09/12 11:46:44;;;;;;;23.83;11.35;;;19.70;96.20;;;;;;4983877;28;20129;-76
2021/09/12 11:49:10;;;;;;;21.27;10.13;;;19.70;96.40;;;;;;4983340;28;20038;-76
2021/09/12 11:51:43;;;;;;;23.17;9.30;;;19.70;96.30;;;;;;4984325;28;20073;-76
2021/09/12 11:54:10;;;;;;;18.42;10.45;;;19.70;96.30;;;;;;4984509;28;20114;-76
2021/09/12 11:56:37;;;;;;;23.52;11.10;;;19.80;96.30;;;;;;4984213;28;20034;-76
2021/09/12 11:59:03;;;;;;;20.92;10.75;;;19.80;96.20;;;;;;4983598;28;20113;-78
2021/09/12 12:01:29;;;;;;;21.80;10.05;;;19.80;96.20;;;;;;4999450;28;20137;-78
2021/09/12 12:03:56;;;;;;;26.65;12.85;;;19.80;96.30;;;;;;4976286;28;20039;-78
2021/09/12 12:06:22;;;;;;;23.63;12.13;;;19.80;96.20;;;;;;4984644;28;20305;-78
2021/09/12 12:09:08;;;;;;;20.65;10.65;;;19.80;96.10;;;;;;4981163;28;20809;-77
2021/09/12 12:11:36;;;;;;;22.75;12.40;;;19.70;96.30;;;;;;4987026;28;20486;-78
2021/09/12 12:14:02;;;;;;;22.92;12.25;;;19.70;96.30;;;;;;4989097;28;20490;-78
2021/09/12 12:16:37;;;;;;;18.27;10.43;;;19.70;96.30;;;;;;4986898;28;20044;-78
2021/09/12 12:19:07;;;;;;;25.88;12.80;;;19.80;96.30;;;;;;4985250;28;20065;-78
2021/09/12 12:21:33;;;;;;;19.95;12.35;;;19.90;96.00;;;;;;4987569;28;20459;-78
2021/09/12 12:24:12;;;;;;;25.70;13.52;;;20.00;96.00;;;;;;4986134;28;20061;-78
2021/09/12 12:26:46;;;;;;;22.10;11.63;;;20.00;96.00;;;;;;4986336;28;20447;-78
2021/09/12 12:29:12;;;;;;;20.23;11.48;;;20.00;96.10;;;;;;4986783;28;20035;-78
2021/09/12 12:31:39;;;;;;;19.92;11.68;;;20.00;96.00;;;;;;4985703;28;20042;-78
2021/09/12 12:34:05;;;;;;;22.13;12.45;;;20.10;96.10;;;;;;5002851;28;20153;-76
2021/09/12 12:36:31;;;;;;;24.77;13.23;;;20.10;96.00;;;;;;4988155;28;20101;-76
2021/09/12 12:39:11;;;;;;;23.58;13.55;;;20.20;96.00;;;;;;4985822;28;20391;-76
2021/09/12 12:41:51;;;;;;;21.25;11.68;;;20.30;95.90;;;;;;5001683;28;20053;-76